sensor_id;sensor_type;location;lat;lon;timestamp;P1;durP1;ratioP1;P2;durP2;ratioP2
65871;SDS011;52653;50.080;21.992;2022-09-19T00:01:21;5.70;;;2.30;;
65871;SDS011;52653;50.080;21.992;2022-09-19T00:03:56;5.20;;;2.00;;
65871;SDS011;52653;50.080;21.992;2022-09-19T00:06:32;4.50;;;1.70;;
65871;SDS011;52653;50.080;21.992;2022-09-19T00:09:06;5.50;;;2.00;;
65871;SDS011;52653;50.080;21.992;2022-09-19T00:11:45;4.80;;;1.80;;
65871;SDS011;52653;50.080;21.992;2022-09-19T00:14:19;5.20;;;1.90;;
65871;SDS011;52653;50.080;21.992;2022-09-19T00:16:54;4.70;;;1.50;;
65871;SDS011;52653;50.080;21.992;2022-09-19T00:19:28;3.20;;;1.60;;
65871;SDS011;52653;50.080;21.992;2022-09-19T00:22:03;5.20;;;1.60;;
65871;SDS011;52653;50.080;21.992;2022-09-19T00:24:35;3.70;;;1.50;;
65871;SDS011;52653;50.080;21.992;2022-09-19T00:27:21;5.80;;;2.20;;
65871;SDS011;52653;50.080;21.992;2022-09-19T00:29:56;5.00;;;2.00;;
65871;SDS011;52653;50.080;21.992;2022-09-19T00:32:27;5.30;;;2.50;;
65871;SDS011;52653;50.080;21.992;2022-09-19T00:35:00;7.00;;;2.20;;
65871;SDS011;52653;50.080;21.992;2022-09-19T00:37:35;5.00;;;1.90;;
65871;SDS011;52653;50.080;21.992;2022-09-19T00:40:07;4.00;;;1.90;;
65871;SDS011;52653;50.080;21.992;2022-09-19T00:42:39;6.40;;;1.80;;
65871;SDS011;52653;50.080;21.992;2022-09-19T00:45:13;4.20;;;1.70;;
65871;SDS011;52653;50.080;21.992;2022-09-19T00:47:47;3.90;;;1.70;;
65871;SDS011;52653;50.080;21.992;2022-09-19T00:50:23;5.70;;;1.90;;
65871;SDS011;52653;50.080;21.992;2022-09-19T00:52:59;3.70;;;1.70;;
65871;SDS011;52653;50.080;21.992;2022-09-19T00:55:34;4.60;;;1.80;;
65871;SDS011;52653;50.080;21.992;2022-09-19T00:58:07;4.20;;;1.30;;
65871;SDS011;52653;50.080;21.992;2022-09-19T01:00:44;3.90;;;1.80;;
65871;SDS011;52653;50.080;21.992;2022-09-19T01:03:19;4.00;;;1.50;;
65871;SDS011;52653;50.080;21.992;2022-09-19T01:05:56;4.80;;;1.90;;
65871;SDS011;52653;50.080;21.992;2022-09-19T01:08:44;4.40;;;2.10;;
65871;SDS011;52653;50.080;21.992;2022-09-19T01:11:32;3.90;;;1.70;;
65871;SDS011;52653;50.080;21.992;2022-09-19T01:14:18;4.60;;;2.00;;
65871;SDS011;52653;50.080;21.992;2022-09-19T01:16:59;4.90;;;2.10;;
65871;SDS011;52653;50.080;21.992;2022-09-19T01:19:45;3.30;;;1.50;;
65871;SDS011;52653;50.080;21.992;2022-09-19T01:22:42;4.80;;;1.50;;
65871;SDS011;52653;50.080;21.992;2022-09-19T01:25:27;6.00;;;1.80;;
65871;SDS011;52653;50.080;21.992;2022-09-19T01:28:09;4.80;;;1.50;;
65871;SDS011;52653;50.080;21.992;2022-09-19T01:30:54;5.10;;;1.60;;
65871;SDS011;52653;50.080;21.992;2022-09-19T01:33:47;3.00;;;1.30;;
65871;SDS011;52653;50.080;21.992;2022-09-19T01:36:31;4.40;;;1.50;;
65871;SDS011;52653;50.080;21.992;2022-09-19T01:39:07;7.30;;;2.10;;
65871;SDS011;52653;50.080;21.992;2022-09-19T01:41:47;3.60;;;1.70;;
65871;SDS011;52653;50.080;21.992;2022-09-19T01:44:23;5.20;;;2.00;;
65871;SDS011;52653;50.080;21.992;2022-09-19T01:46:58;4.80;;;2.00;;
65871;SDS011;52653;50.080;21.992;2022-09-19T01:49:45;5.50;;;2.10;;
65871;SDS011;52653;50.080;21.992;2022-09-19T01:52:27;5.10;;;1.90;;
65871;SDS011;52653;50.080;21.992;2022-09-19T01:55:12;5.70;;;2.30;;
65871;SDS011;52653;50.080;21.992;2022-09-19T01:57:59;5.60;;;2.10;;
65871;SDS011;52653;50.080;21.992;2022-09-19T02:00:37;7.90;;;2.60;;
65871;SDS011;52653;50.080;21.992;2022-09-19T02:03:15;4.20;;;2.30;;
65871;SDS011;52653;50.080;21.992;2022-09-19T02:05:59;4.30;;;1.70;;
65871;SDS011;52653;50.080;21.992;2022-09-19T02:08:39;4.30;;;1.80;;
65871;SDS011;52653;50.080;21.992;2022-09-19T02:11:24;6.10;;;2.20;;
65871;SDS011;52653;50.080;21.992;2022-09-19T02:13:58;6.00;;;2.70;;
65871;SDS011;52653;50.080;21.992;2022-09-19T02:16:38;4.30;;;2.20;;
65871;SDS011;52653;50.080;21.992;2022-09-19T02:19:16;5.50;;;1.90;;
65871;SDS011;52653;50.080;21.992;2022-09-19T02:21:53;6.80;;;1.70;;
65871;SDS011;52653;50.080;21.992;2022-09-19T02:24:30;4.40;;;1.80;;
65871;SDS011;52653;50.080;21.992;2022-09-19T02:27:07;3.40;;;1.30;;
65871;SDS011;52653;50.080;21.992;2022-09-19T02:29:47;3.80;;;1.50;;
65871;SDS011;52653;50.080;21.992;2022-09-19T02:32:23;3.90;;;1.50;;
65871;SDS011;52653;50.080;21.992;2022-09-19T02:34:56;5.10;;;1.60;;
65871;SDS011;52653;50.080;21.992;2022-09-19T02:37:29;5.90;;;1.50;;
65871;SDS011;52653;50.080;21.992;2022-09-19T02:40:16;3.90;;;1.20;;
65871;SDS011;52653;50.080;21.992;2022-09-19T02:42:55;3.40;;;1.30;;
65871;SDS011;52653;50.080;21.992;2022-09-19T02:45:34;3.90;;;1.70;;
65871;SDS011;52653;50.080;21.992;2022-09-19T02:48:13;4.10;;;1.90;;
65871;SDS011;52653;50.080;21.992;2022-09-19T02:50:55;4.10;;;1.60;;
65871;SDS011;52653;50.080;21.992;2022-09-19T02:53:33;4.50;;;1.70;;
65871;SDS011;52653;50.080;21.992;2022-09-19T02:56:14;4.60;;;1.50;;
65871;SDS011;52653;50.080;21.992;2022-09-19T02:58:50;3.40;;;1.60;;
65871;SDS011;52653;50.080;21.992;2022-09-19T03:01:30;3.30;;;1.50;;
65871;SDS011;52653;50.080;21.992;2022-09-19T03:04:05;3.60;;;1.50;;
65871;SDS011;52653;50.080;21.992;2022-09-19T03:06:55;3.80;;;1.90;;
65871;SDS011;52653;50.080;21.992;2022-09-19T03:09:31;2.40;;;1.20;;
65871;SDS011;52653;50.080;21.992;2022-09-19T03:12:07;2.90;;;1.30;;
65871;SDS011;52653;50.080;21.992;2022-09-19T03:14:48;3.10;;;1.20;;
65871;SDS011;52653;50.080;21.992;2022-09-19T03:17:26;3.50;;;1.20;;
65871;SDS011;52653;50.080;21.992;2022-09-19T03:20:02;3.80;;;1.40;;
65871;SDS011;52653;50.080;21.992;2022-09-19T03:22:42;3.20;;;1.60;;
65871;SDS011;52653;50.080;21.992;2022-09-19T03:25:14;3.70;;;1.90;;
65871;SDS011;52653;50.080;21.992;2022-09-19T03:27:48;3.90;;;1.60;;
65871;SDS011;52653;50.080;21.992;2022-09-19T03:30:22;3.30;;;1.50;;
65871;SDS011;52653;50.080;21.992;2022-09-19T03:32:53;4.00;;;1.60;;
65871;SDS011;52653;50.080;21.992;2022-09-19T03:35:26;3.40;;;1.50;;
65871;SDS011;52653;50.080;21.992;2022-09-19T03:37:58;3.20;;;1.40;;
65871;SDS011;52653;50.080;21.992;2022-09-19T03:40:30;4.00;;;1.50;;
65871;SDS011;52653;50.080;21.992;2022-09-19T03:43:02;4.30;;;1.90;;
65871;SDS011;52653;50.080;21.992;2022-09-19T03:45:38;3.50;;;1.30;;
65871;SDS011;52653;50.080;21.992;2022-09-19T03:48:10;3.40;;;1.30;;
65871;SDS011;52653;50.080;21.992;2022-09-19T03:50:43;3.80;;;1.30;;
65871;SDS011;52653;50.080;21.992;2022-09-19T03:53:15;4.80;;;1.70;;
65871;SDS011;52653;50.080;21.992;2022-09-19T03:55:49;3.60;;;1.40;;
65871;SDS011;52653;50.080;21.992;2022-09-19T03:58:21;5.20;;;1.70;;
65871;SDS011;52653;50.080;21.992;2022-09-19T04:01:14;3.20;;;1.60;;
65871;SDS011;52653;50.080;21.992;2022-09-19T04:04:09;3.70;;;1.50;;
65871;SDS011;52653;50.080;21.992;2022-09-19T04:06:50;2.40;;;1.20;;
65871;SDS011;52653;50.080;21.992;2022-09-19T04:09:25;3.60;;;1.30;;
65871;SDS011;52653;50.080;21.992;2022-09-19T04:12:00;5.30;;;1.50;;
65871;SDS011;52653;50.080;21.992;2022-09-19T04:14:36;3.60;;;1.40;;
65871;SDS011;52653;50.080;21.992;2022-09-19T04:17:08;2.40;;;1.30;;
65871;SDS011;52653;50.080;21.992;2022-09-19T04:19:54;3.60;;;1.40;;
65871;SDS011;52653;50.080;21.992;2022-09-19T04:22:48;3.10;;;1.10;;
65871;SDS011;52653;50.080;21.992;2022-09-19T04:25:28;3.20;;;1.20;;
65871;SDS011;52653;50.080;21.992;2022-09-19T04:28:13;3.80;;;1.60;;
65871;SDS011;52653;50.080;21.992;2022-09-19T04:30:47;3.90;;;1.70;;
65871;SDS011;52653;50.080;21.992;2022-09-19T04:33:24;3.00;;;1.60;;
65871;SDS011;52653;50.080;21.992;2022-09-19T04:35:58;6.40;;;2.30;;
65871;SDS011;52653;50.080;21.992;2022-09-19T04:38:32;5.60;;;1.80;;
65871;SDS011;52653;50.080;21.992;2022-09-19T04:41:13;4.40;;;1.60;;
65871;SDS011;52653;50.080;21.992;2022-09-19T04:43:46;3.20;;;1.70;;
65871;SDS011;52653;50.080;21.992;2022-09-19T04:46:31;4.50;;;1.30;;
65871;SDS011;52653;50.080;21.992;2022-09-19T04:49:08;3.80;;;1.30;;
65871;SDS011;52653;50.080;21.992;2022-09-19T04:51:45;3.20;;;1.30;;
65871;SDS011;52653;50.080;21.992;2022-09-19T04:54:17;3.60;;;1.70;;
65871;SDS011;52653;50.080;21.992;2022-09-19T04:56:49;4.20;;;1.50;;
65871;SDS011;52653;50.080;21.992;2022-09-19T04:59:21;3.10;;;1.50;;
65871;SDS011;52653;50.080;21.992;2022-09-19T05:01:57;2.70;;;1.30;;
65871;SDS011;52653;50.080;21.992;2022-09-19T05:04:30;3.40;;;1.70;;
65871;SDS011;52653;50.080;21.992;2022-09-19T05:07:02;5.10;;;1.60;;
65871;SDS011;52653;50.080;21.992;2022-09-19T05:09:37;3.40;;;1.60;;
65871;SDS011;52653;50.080;21.992;2022-09-19T05:12:11;5.60;;;1.80;;
65871;SDS011;52653;50.080;21.992;2022-09-19T05:14:46;3.50;;;1.90;;
65871;SDS011;52653;50.080;21.992;2022-09-19T05:17:21;3.70;;;1.50;;
65871;SDS011;52653;50.080;21.992;2022-09-19T05:19:56;3.80;;;1.40;;
65871;SDS011;52653;50.080;21.992;2022-09-19T05:22:29;4.30;;;1.80;;
65871;SDS011;52653;50.080;21.992;2022-09-19T05:25:03;4.30;;;1.70;;
65871;SDS011;52653;50.080;21.992;2022-09-19T05:27:35;2.90;;;1.50;;
65871;SDS011;52653;50.080;21.992;2022-09-19T05:30:11;4.40;;;1.60;;
65871;SDS011;52653;50.080;21.992;2022-09-19T05:32:43;4.00;;;1.60;;
65871;SDS011;52653;50.080;21.992;2022-09-19T05:35:28;2.90;;;1.40;;
65871;SDS011;52653;50.080;21.992;2022-09-19T05:38:07;3.00;;;1.30;;
65871;SDS011;52653;50.080;21.992;2022-09-19T05:41:08;2.20;;;1.20;;
65871;SDS011;52653;50.080;21.992;2022-09-19T05:43:52;2.70;;;1.40;;
65871;SDS011;52653;50.080;21.992;2022-09-19T05:46:24;2.20;;;1.40;;
65871;SDS011;52653;50.080;21.992;2022-09-19T05:48:59;3.60;;;1.40;;
65871;SDS011;52653;50.080;21.992;2022-09-19T05:51:32;4.70;;;1.60;;
65871;SDS011;52653;50.080;21.992;2022-09-19T05:54:04;4.50;;;1.60;;
65871;SDS011;52653;50.080;21.992;2022-09-19T05:56:36;3.90;;;1.70;;
65871;SDS011;52653;50.080;21.992;2022-09-19T05:59:10;4.20;;;1.60;;
65871;SDS011;52653;50.080;21.992;2022-09-19T06:01:44;3.50;;;1.70;;
65871;SDS011;52653;50.080;21.992;2022-09-19T06:04:27;3.00;;;1.50;;
65871;SDS011;52653;50.080;21.992;2022-09-19T06:07:00;3.90;;;1.80;;
65871;SDS011;52653;50.080;21.992;2022-09-19T06:09:36;4.00;;;1.70;;
65871;SDS011;52653;50.080;21.992;2022-09-19T06:12:08;3.20;;;1.50;;
65871;SDS011;52653;50.080;21.992;2022-09-19T06:14:40;4.20;;;1.70;;
65871;SDS011;52653;50.080;21.992;2022-09-19T06:17:14;3.00;;;1.20;;
65871;SDS011;52653;50.080;21.992;2022-09-19T06:20:11;2.70;;;1.30;;
65871;SDS011;52653;50.080;21.992;2022-09-19T06:22:56;3.60;;;1.40;;
65871;SDS011;52653;50.080;21.992;2022-09-19T06:25:33;3.90;;;1.80;;
65871;SDS011;52653;50.080;21.992;2022-09-19T06:28:17;5.40;;;2.00;;
65871;SDS011;52653;50.080;21.992;2022-09-19T06:31:06;3.80;;;1.90;;
65871;SDS011;52653;50.080;21.992;2022-09-19T06:33:56;5.20;;;1.90;;
65871;SDS011;52653;50.080;21.992;2022-09-19T06:36:34;5.40;;;1.90;;
65871;SDS011;52653;50.080;21.992;2022-09-19T06:39:18;4.20;;;2.30;;
65871;SDS011;52653;50.080;21.992;2022-09-19T06:42:03;4.40;;;2.10;;
65871;SDS011;52653;50.080;21.992;2022-09-19T06:44:55;4.40;;;2.10;;
65871;SDS011;52653;50.080;21.992;2022-09-19T06:47:34;4.40;;;2.00;;
65871;SDS011;52653;50.080;21.992;2022-09-19T06:50:15;5.10;;;2.30;;
65871;SDS011;52653;50.080;21.992;2022-09-19T06:53:00;5.00;;;2.30;;
65871;SDS011;52653;50.080;21.992;2022-09-19T06:55:35;5.40;;;2.60;;
65871;SDS011;52653;50.080;21.992;2022-09-19T06:58:17;4.20;;;1.90;;
65871;SDS011;52653;50.080;21.992;2022-09-19T07:00:51;4.10;;;2.20;;
65871;SDS011;52653;50.080;21.992;2022-09-19T07:03:25;3.40;;;1.80;;
65871;SDS011;52653;50.080;21.992;2022-09-19T07:06:01;4.90;;;1.90;;
65871;SDS011;52653;50.080;21.992;2022-09-19T07:08:36;3.90;;;1.60;;
65871;SDS011;52653;50.080;21.992;2022-09-19T07:11:19;3.00;;;1.30;;
65871;SDS011;52653;50.080;21.992;2022-09-19T07:13:57;2.20;;;1.20;;
65871;SDS011;52653;50.080;21.992;2022-09-19T07:16:30;2.70;;;1.10;;
65871;SDS011;52653;50.080;21.992;2022-09-19T07:19:04;2.30;;;1.50;;
65871;SDS011;52653;50.080;21.992;2022-09-19T07:21:57;4.00;;;1.70;;
65871;SDS011;52653;50.080;21.992;2022-09-19T07:24:49;4.80;;;1.70;;
65871;SDS011;52653;50.080;21.992;2022-09-19T07:27:40;2.80;;;1.40;;
65871;SDS011;52653;50.080;21.992;2022-09-19T07:30:15;4.50;;;1.60;;
65871;SDS011;52653;50.080;21.992;2022-09-19T07:32:47;3.00;;;1.60;;
65871;SDS011;52653;50.080;21.992;2022-09-19T07:35:19;4.60;;;1.80;;
65871;SDS011;52653;50.080;21.992;2022-09-19T07:37:55;4.30;;;1.50;;
65871;SDS011;52653;50.080;21.992;2022-09-19T07:40:38;2.70;;;1.50;;
65871;SDS011;52653;50.080;21.992;2022-09-19T07:43:22;4.10;;;1.80;;
65871;SDS011;52653;50.080;21.992;2022-09-19T07:46:14;4.80;;;1.80;;
65871;SDS011;52653;50.080;21.992;2022-09-19T07:49:01;3.10;;;1.70;;
65871;SDS011;52653;50.080;21.992;2022-09-19T07:51:55;3.00;;;1.60;;
65871;SDS011;52653;50.080;21.992;2022-09-19T07:54:27;4.70;;;2.00;;
65871;SDS011;52653;50.080;21.992;2022-09-19T07:57:00;4.20;;;1.60;;
65871;SDS011;52653;50.080;21.992;2022-09-19T07:59:33;3.10;;;1.80;;
65871;SDS011;52653;50.080;21.992;2022-09-19T08:02:06;4.00;;;1.90;;
65871;SDS011;52653;50.080;21.992;2022-09-19T08:04:40;2.80;;;1.50;;
65871;SDS011;52653;50.080;21.992;2022-09-19T08:07:12;4.50;;;1.80;;
65871;SDS011;52653;50.080;21.992;2022-09-19T08:09:45;4.00;;;1.80;;
65871;SDS011;52653;50.080;21.992;2022-09-19T08:12:23;3.00;;;1.60;;
65871;SDS011;52653;50.080;21.992;2022-09-19T08:15:07;3.30;;;1.50;;
65871;SDS011;52653;50.080;21.992;2022-09-19T08:17:39;2.80;;;1.60;;
65871;SDS011;52653;50.080;21.992;2022-09-19T08:20:12;2.60;;;1.40;;
65871;SDS011;52653;50.080;21.992;2022-09-19T08:22:45;4.80;;;2.00;;
65871;SDS011;52653;50.080;21.992;2022-09-19T08:25:21;4.90;;;2.10;;
65871;SDS011;52653;50.080;21.992;2022-09-19T08:27:55;4.70;;;2.00;;
65871;SDS011;52653;50.080;21.992;2022-09-19T08:30:31;5.20;;;2.40;;
65871;SDS011;52653;50.080;21.992;2022-09-19T08:35:41;3.60;;;1.90;;
65871;SDS011;52653;50.080;21.992;2022-09-19T08:38:23;4.20;;;2.00;;
65871;SDS011;52653;50.080;21.992;2022-09-19T08:41:08;4.20;;;2.10;;
65871;SDS011;52653;50.080;21.992;2022-09-19T08:44:01;4.10;;;1.80;;
65871;SDS011;52653;50.080;21.992;2022-09-19T08:46:42;3.50;;;2.00;;
65871;SDS011;52653;50.080;21.992;2022-09-19T08:49:22;3.10;;;1.70;;
65871;SDS011;52653;50.080;21.992;2022-09-19T08:52:01;3.60;;;2.10;;
65871;SDS011;52653;50.080;21.992;2022-09-19T08:54:45;4.40;;;2.20;;
65871;SDS011;52653;50.080;21.992;2022-09-19T08:57:25;4.30;;;2.20;;
65871;SDS011;52653;50.080;21.992;2022-09-19T09:00:05;5.00;;;2.40;;
65871;SDS011;52653;50.080;21.992;2022-09-19T09:02:46;4.00;;;2.10;;
65871;SDS011;52653;50.080;21.992;2022-09-19T09:05:44;4.10;;;2.20;;
65871;SDS011;52653;50.080;21.992;2022-09-19T09:08:29;4.10;;;2.20;;
65871;SDS011;52653;50.080;21.992;2022-09-19T09:11:24;4.40;;;2.10;;
65871;SDS011;52653;50.080;21.992;2022-09-19T09:14:09;3.30;;;1.90;;
65871;SDS011;52653;50.080;21.992;2022-09-19T09:17:02;5.50;;;2.00;;
65871;SDS011;52653;50.080;21.992;2022-09-19T09:19:49;5.30;;;2.60;;
65871;SDS011;52653;50.080;21.992;2022-09-19T09:22:33;4.20;;;2.30;;
65871;SDS011;52653;50.080;21.992;2022-09-19T09:25:38;5.30;;;2.20;;
65871;SDS011;52653;50.080;21.992;2022-09-19T09:28:21;4.20;;;2.20;;
65871;SDS011;52653;50.080;21.992;2022-09-19T09:31:17;4.20;;;2.30;;
65871;SDS011;52653;50.080;21.992;2022-09-19T09:33:57;4.90;;;2.50;;
65871;SDS011;52653;50.080;21.992;2022-09-19T09:36:36;5.70;;;2.10;;
65871;SDS011;52653;50.080;21.992;2022-09-19T09:39:16;4.60;;;2.10;;
65871;SDS011;52653;50.080;21.992;2022-09-19T09:41:52;6.00;;;3.60;;
65871;SDS011;52653;50.080;21.992;2022-09-19T09:44:33;5.20;;;3.40;;
65871;SDS011;52653;50.080;21.992;2022-09-19T09:47:17;3.40;;;1.90;;
65871;SDS011;52653;50.080;21.992;2022-09-19T09:49:59;2.90;;;1.60;;
65871;SDS011;52653;50.080;21.992;2022-09-19T09:52:43;4.90;;;1.50;;
65871;SDS011;52653;50.080;21.992;2022-09-19T09:58:34;3.20;;;1.80;;
65871;SDS011;52653;50.080;21.992;2022-09-19T10:01:18;3.10;;;1.70;;
65871;SDS011;52653;50.080;21.992;2022-09-19T10:04:19;4.00;;;1.80;;
65871;SDS011;52653;50.080;21.992;2022-09-19T10:07:11;5.30;;;2.10;;
65871;SDS011;52653;50.080;21.992;2022-09-19T10:09:51;3.90;;;1.80;;
65871;SDS011;52653;50.080;21.992;2022-09-19T10:12:29;4.00;;;1.60;;
65871;SDS011;52653;50.080;21.992;2022-09-19T10:15:22;4.00;;;1.60;;
65871;SDS011;52653;50.080;21.992;2022-09-19T10:18:07;3.50;;;1.30;;
65871;SDS011;52653;50.080;21.992;2022-09-19T10:21:04;5.00;;;1.60;;
65871;SDS011;52653;50.080;21.992;2022-09-19T10:23:40;3.20;;;1.40;;
65871;SDS011;52653;50.080;21.992;2022-09-19T10:26:25;3.80;;;1.70;;
65871;SDS011;52653;50.080;21.992;2022-09-19T10:29:03;5.80;;;2.40;;
65871;SDS011;52653;50.080;21.992;2022-09-19T10:32:07;3.70;;;1.90;;
65871;SDS011;52653;50.080;21.992;2022-09-19T10:35:07;5.60;;;2.50;;
65871;SDS011;52653;50.080;21.992;2022-09-19T10:37:59;6.40;;;2.50;;
65871;SDS011;52653;50.080;21.992;2022-09-19T10:40:34;3.50;;;2.00;;
65871;SDS011;52653;50.080;21.992;2022-09-19T10:43:09;4.40;;;2.10;;
65871;SDS011;52653;50.080;21.992;2022-09-19T10:45:52;4.20;;;2.10;;
65871;SDS011;52653;50.080;21.992;2022-09-19T10:48:26;6.40;;;2.30;;
65871;SDS011;52653;50.080;21.992;2022-09-19T10:51:00;4.70;;;1.80;;
65871;SDS011;52653;50.080;21.992;2022-09-19T10:53:39;4.70;;;1.70;;
65871;SDS011;52653;50.080;21.992;2022-09-19T10:56:18;3.90;;;1.80;;
65871;SDS011;52653;50.080;21.992;2022-09-19T10:58:57;3.90;;;1.70;;
65871;SDS011;52653;50.080;21.992;2022-09-19T11:01:38;5.60;;;1.70;;
65871;SDS011;52653;50.080;21.992;2022-09-19T11:04:20;4.20;;;1.70;;
65871;SDS011;52653;50.080;21.992;2022-09-19T11:06:56;5.30;;;2.10;;
65871;SDS011;52653;50.080;21.992;2022-09-19T11:09:31;4.30;;;1.70;;
65871;SDS011;52653;50.080;21.992;2022-09-19T11:12:09;4.20;;;2.70;;
65871;SDS011;52653;50.080;21.992;2022-09-19T11:14:44;4.20;;;2.10;;
65871;SDS011;52653;50.080;21.992;2022-09-19T11:17:32;4.40;;;2.70;;
65871;SDS011;52653;50.080;21.992;2022-09-19T11:20:28;7.00;;;2.60;;
65871;SDS011;52653;50.080;21.992;2022-09-19T11:23:23;5.10;;;2.50;;
65871;SDS011;52653;50.080;21.992;2022-09-19T11:26:17;5.90;;;3.00;;
65871;SDS011;52653;50.080;21.992;2022-09-19T11:28:59;4.70;;;2.50;;
65871;SDS011;52653;50.080;21.992;2022-09-19T11:31:49;4.90;;;2.30;;
65871;SDS011;52653;50.080;21.992;2022-09-19T11:34:54;5.10;;;2.40;;
65871;SDS011;52653;50.080;21.992;2022-09-19T11:37:47;5.00;;;2.10;;
65871;SDS011;52653;50.080;21.992;2022-09-19T11:40:33;6.10;;;2.40;;
65871;SDS011;52653;50.080;21.992;2022-09-19T11:43:16;3.70;;;2.30;;
65871;SDS011;52653;50.080;21.992;2022-09-19T11:46:07;4.70;;;2.50;;
65871;SDS011;52653;50.080;21.992;2022-09-19T11:48:56;4.60;;;2.70;;
65871;SDS011;52653;50.080;21.992;2022-09-19T11:51:45;4.80;;;2.40;;
65871;SDS011;52653;50.080;21.992;2022-09-19T11:54:34;4.70;;;2.20;;
65871;SDS011;52653;50.080;21.992;2022-09-19T11:57:32;4.60;;;2.30;;
65871;SDS011;52653;50.080;21.992;2022-09-19T12:00:14;5.50;;;2.40;;
65871;SDS011;52653;50.080;21.992;2022-09-19T12:02:57;4.40;;;2.20;;
65871;SDS011;52653;50.080;21.992;2022-09-19T12:05:57;6.00;;;2.10;;
65871;SDS011;52653;50.080;21.992;2022-09-19T12:08:44;3.50;;;2.10;;
65871;SDS011;52653;50.080;21.992;2022-09-19T12:11:31;5.20;;;2.30;;
65871;SDS011;52653;50.080;21.992;2022-09-19T12:14:09;5.60;;;2.20;;
65871;SDS011;52653;50.080;21.992;2022-09-19T12:16:53;4.30;;;1.70;;
65871;SDS011;52653;50.080;21.992;2022-09-19T12:19:41;3.50;;;1.80;;
65871;SDS011;52653;50.080;21.992;2022-09-19T12:22:25;5.20;;;2.10;;
65871;SDS011;52653;50.080;21.992;2022-09-19T12:25:02;5.20;;;2.40;;
65871;SDS011;52653;50.080;21.992;2022-09-19T12:27:40;5.90;;;1.80;;
65871;SDS011;52653;50.080;21.992;2022-09-19T12:30:18;4.60;;;1.80;;
65871;SDS011;52653;50.080;21.992;2022-09-19T12:32:57;5.40;;;1.90;;
65871;SDS011;52653;50.080;21.992;2022-09-19T12:35:38;3.20;;;1.50;;
65871;SDS011;52653;50.080;21.992;2022-09-19T12:38:19;2.30;;;1.20;;
65871;SDS011;52653;50.080;21.992;2022-09-19T12:40:57;4.40;;;1.60;;
65871;SDS011;52653;50.080;21.992;2022-09-19T12:43:37;4.00;;;1.50;;
65871;SDS011;52653;50.080;21.992;2022-09-19T12:46:20;3.80;;;1.60;;
65871;SDS011;52653;50.080;21.992;2022-09-19T12:49:04;2.80;;;1.40;;
65871;SDS011;52653;50.080;21.992;2022-09-19T12:54:25;3.30;;;1.70;;
65871;SDS011;52653;50.080;21.992;2022-09-19T12:57:07;6.60;;;2.20;;
65871;SDS011;52653;50.080;21.992;2022-09-19T12:59:46;5.40;;;2.10;;
65871;SDS011;52653;50.080;21.992;2022-09-19T13:02:21;4.20;;;1.70;;
65871;SDS011;52653;50.080;21.992;2022-09-19T13:04:58;4.10;;;1.60;;
65871;SDS011;52653;50.080;21.992;2022-09-19T13:07:37;3.20;;;1.70;;
65871;SDS011;52653;50.080;21.992;2022-09-19T13:12:50;4.40;;;1.80;;
65871;SDS011;52653;50.080;21.992;2022-09-19T13:15:27;6.90;;;1.70;;
65871;SDS011;52653;50.080;21.992;2022-09-19T13:18:04;5.70;;;2.00;;
65871;SDS011;52653;50.080;21.992;2022-09-19T13:21:06;3.70;;;1.20;;
65871;SDS011;52653;50.080;21.992;2022-09-19T13:24:05;5.00;;;1.60;;
65871;SDS011;52653;50.080;21.992;2022-09-19T13:26:41;2.70;;;1.30;;
65871;SDS011;52653;50.080;21.992;2022-09-19T13:32:35;5.40;;;2.20;;
65871;SDS011;52653;50.080;21.992;2022-09-19T13:35:23;5.00;;;1.90;;
65871;SDS011;52653;50.080;21.992;2022-09-19T13:37:57;4.10;;;2.20;;
65871;SDS011;52653;50.080;21.992;2022-09-19T13:40:47;5.70;;;2.70;;
65871;SDS011;52653;50.080;21.992;2022-09-19T13:43:43;4.10;;;1.70;;
65871;SDS011;52653;50.080;21.992;2022-09-19T13:46:27;3.00;;;1.50;;
65871;SDS011;52653;50.080;21.992;2022-09-19T13:49:14;2.20;;;0.90;;
65871;SDS011;52653;50.080;21.992;2022-09-19T13:51:58;3.00;;;1.20;;
65871;SDS011;52653;50.080;21.992;2022-09-19T13:54:37;2.10;;;1.00;;
65871;SDS011;52653;50.080;21.992;2022-09-19T13:57:32;1.40;;;0.80;;
65871;SDS011;52653;50.080;21.992;2022-09-19T14:00:09;1.90;;;0.80;;
65871;SDS011;52653;50.080;21.992;2022-09-19T14:03:01;2.10;;;1.00;;
65871;SDS011;52653;50.080;21.992;2022-09-19T14:05:35;4.00;;;1.00;;
65871;SDS011;52653;50.080;21.992;2022-09-19T14:08:23;1.80;;;0.80;;
65871;SDS011;52653;50.080;21.992;2022-09-19T14:11:20;2.00;;;0.80;;
65871;SDS011;52653;50.080;21.992;2022-09-19T14:14:01;3.00;;;1.10;;
65871;SDS011;52653;50.080;21.992;2022-09-19T14:17:23;4.20;;;1.50;;
65871;SDS011;52653;50.080;21.992;2022-09-19T14:20:00;3.10;;;1.70;;
65871;SDS011;52653;50.080;21.992;2022-09-19T14:22:41;5.10;;;2.20;;
65871;SDS011;52653;50.080;21.992;2022-09-19T14:25:16;5.50;;;2.80;;
65871;SDS011;52653;50.080;21.992;2022-09-19T14:34:16;5.00;;;2.10;;
65871;SDS011;52653;50.080;21.992;2022-09-19T14:37:06;4.10;;;1.90;;
65871;SDS011;52653;50.080;21.992;2022-09-19T14:40:17;4.30;;;1.90;;
65871;SDS011;52653;50.080;21.992;2022-09-19T14:46:27;5.20;;;2.40;;
65871;SDS011;52653;50.080;21.992;2022-09-19T14:49:08;6.40;;;2.30;;
65871;SDS011;52653;50.080;21.992;2022-09-19T14:51:51;5.90;;;2.40;;
65871;SDS011;52653;50.080;21.992;2022-09-19T14:54:31;5.90;;;2.50;;
65871;SDS011;52653;50.080;21.992;2022-09-19T14:57:15;5.30;;;2.20;;
65871;SDS011;52653;50.080;21.992;2022-09-19T14:59:49;5.10;;;2.30;;
65871;SDS011;52653;50.080;21.992;2022-09-19T15:02:34;5.60;;;2.50;;
65871;SDS011;52653;50.080;21.992;2022-09-19T15:05:18;14.30;;;5.20;;
65871;SDS011;52653;50.080;21.992;2022-09-19T15:07:53;31.10;;;12.80;;
65871;SDS011;52653;50.080;21.992;2022-09-19T15:10:31;22.80;;;10.20;;
65871;SDS011;52653;50.080;21.992;2022-09-19T15:13:15;11.90;;;6.20;;
65871;SDS011;52653;50.080;21.992;2022-09-19T15:15:49;7.20;;;3.70;;
65871;SDS011;52653;50.080;21.992;2022-09-19T15:18:25;5.70;;;3.40;;
65871;SDS011;52653;50.080;21.992;2022-09-19T15:21:04;5.80;;;3.30;;
65871;SDS011;52653;50.080;21.992;2022-09-19T15:23:40;5.50;;;2.90;;
65871;SDS011;52653;50.080;21.992;2022-09-19T15:26:15;5.20;;;2.90;;
65871;SDS011;52653;50.080;21.992;2022-09-19T15:29:18;5.10;;;2.50;;
65871;SDS011;52653;50.080;21.992;2022-09-19T15:32:27;4.30;;;2.40;;
65871;SDS011;52653;50.080;21.992;2022-09-19T15:35:24;6.00;;;2.60;;
65871;SDS011;52653;50.080;21.992;2022-09-19T15:38:01;5.40;;;2.50;;
65871;SDS011;52653;50.080;21.992;2022-09-19T15:40:56;6.60;;;3.10;;
65871;SDS011;52653;50.080;21.992;2022-09-19T15:43:50;6.00;;;3.00;;
65871;SDS011;52653;50.080;21.992;2022-09-19T15:46:34;5.40;;;3.20;;
65871;SDS011;52653;50.080;21.992;2022-09-19T15:49:33;5.90;;;3.50;;
65871;SDS011;52653;50.080;21.992;2022-09-19T15:52:30;7.20;;;3.70;;
65871;SDS011;52653;50.080;21.992;2022-09-19T15:55:19;6.60;;;3.70;;
65871;SDS011;52653;50.080;21.992;2022-09-19T15:58:19;6.10;;;3.40;;
65871;SDS011;52653;50.080;21.992;2022-09-19T16:01:23;6.90;;;3.80;;
65871;SDS011;52653;50.080;21.992;2022-09-19T16:04:09;6.40;;;3.40;;
65871;SDS011;52653;50.080;21.992;2022-09-19T16:06:49;5.60;;;2.70;;
65871;SDS011;52653;50.080;21.992;2022-09-19T16:10:10;6.00;;;2.90;;
65871;SDS011;52653;50.080;21.992;2022-09-19T16:13:36;6.20;;;2.50;;
65871;SDS011;52653;50.080;21.992;2022-09-19T16:16:26;5.90;;;2.50;;
65871;SDS011;52653;50.080;21.992;2022-09-19T16:19:39;4.80;;;2.70;;
65871;SDS011;52653;50.080;21.992;2022-09-19T16:22:22;7.20;;;4.10;;